createdAt,value
2023-01-11T00:00:36.485Z,3.35
2023-01-11T00:01:23.431Z,3.41
2023-01-11T00:02:10.444Z,3.39
2023-01-11T00:02:58.426Z,3.35
2023-01-11T00:03:45.528Z,3.42
2023-01-11T00:04:32.489Z,3.43
2023-01-11T00:05:19.455Z,3.45
2023-01-11T00:06:08.171Z,3.44
2023-01-11T00:06:55.190Z,3.34
2023-01-11T00:07:42.174Z,3.32
2023-01-11T00:08:29.188Z,3.33
2023-01-11T00:09:16.374Z,3.33
2023-01-11T00:10:05.012Z,3.32
2023-01-11T00:10:51.908Z,3.29
2023-01-11T00:11:39.097Z,3.34
2023-01-11T00:12:26.003Z,3.33
2023-01-11T00:13:13.050Z,3.33
2023-01-11T00:13:59.982Z,3.27
2023-01-11T00:14:47.075Z,3.29
2023-01-11T00:15:36.047Z,3.23
2023-01-11T00:16:23.003Z,3.28
2023-01-11T00:17:10.109Z,3.25
2023-01-11T00:17:57.952Z,3.33
2023-01-11T00:18:44.868Z,3.38
2023-01-11T00:19:31.765Z,3.26
2023-01-11T00:20:19.625Z,3.23
2023-01-11T00:21:07.066Z,3.31
2023-01-11T00:21:53.954Z,3.38
2023-01-11T00:22:40.840Z,3.36
2023-01-11T00:23:27.656Z,3.32
2023-01-11T00:24:14.594Z,3.31
2023-01-11T00:25:01.558Z,3.37
2023-01-11T00:25:48.534Z,3.33
2023-01-11T00:26:35.389Z,3.29
2023-01-11T00:27:22.346Z,3.33
2023-01-11T00:28:09.581Z,3.33
2023-01-11T00:28:56.575Z,3.30
2023-01-11T00:29:43.526Z,3.32
2023-01-11T00:30:30.508Z,3.28
2023-01-11T00:31:17.862Z,3.35
2023-01-11T00:32:04.903Z,3.34
2023-01-11T00:32:59.375Z,3.30
2023-01-11T00:33:46.254Z,3.22
2023-01-11T00:34:33.225Z,3.21
2023-01-11T00:35:20.126Z,3.25
2023-01-11T00:36:07.473Z,3.30
2023-01-11T00:36:54.402Z,3.22
2023-01-11T00:37:41.337Z,3.18
2023-01-11T00:38:47.073Z,3.19
2023-01-11T00:39:34.033Z,3.19
2023-01-11T00:40:21.443Z,3.26
2023-01-11T00:41:27.477Z,3.21
2023-01-11T00:42:32.996Z,3.17
2023-01-11T00:43:38.577Z,3.15
2023-01-11T00:44:57.626Z,3.11
2023-01-11T00:46:03.032Z,3.11
2023-01-11T00:47:08.655Z,3.13
2023-01-11T00:47:58.723Z,3.21
2023-01-11T00:48:45.575Z,3.08
2023-01-11T00:49:33.035Z,3.01
2023-01-11T00:50:19.983Z,3.09
2023-01-11T00:51:07.127Z,2.99
2023-01-11T00:51:54.081Z,2.98
2023-01-11T00:52:41.050Z,3.00
2023-01-11T00:53:27.990Z,3.03
2023-01-11T00:54:14.959Z,3.06
2023-01-11T00:55:01.865Z,3.10
2023-01-11T00:55:48.744Z,3.13
2023-01-11T00:56:36.443Z,3.01
2023-01-11T00:57:23.472Z,2.99
2023-01-11T00:58:10.428Z,3.03
2023-01-11T00:58:57.295Z,3.00
2023-01-11T00:59:44.286Z,2.92
2023-01-11T01:00:31.356Z,2.90
2023-01-11T01:01:18.237Z,2.91
2023-01-11T01:02:05.211Z,2.90
2023-01-11T01:02:52.258Z,2.89
2023-01-11T01:03:39.305Z,2.95
2023-01-11T01:04:26.215Z,2.93
2023-01-11T01:05:13.715Z,2.96
2023-01-11T01:06:00.565Z,2.90
2023-01-11T01:06:47.448Z,2.84
2023-01-11T01:07:34.348Z,2.80
2023-01-11T01:08:21.258Z,2.83
2023-01-11T01:09:08.123Z,2.76
2023-01-11T01:09:55.005Z,2.81
2023-01-11T01:10:41.844Z,2.76
2023-01-11T01:11:28.778Z,2.80
2023-01-11T01:12:35.589Z,2.77
2023-01-11T01:13:40.872Z,2.75
2023-01-11T01:14:33.362Z,2.71
2023-01-11T01:15:20.534Z,2.74
2023-01-11T01:16:07.875Z,2.68
2023-01-11T01:16:57.274Z,2.73
2023-01-11T01:17:44.225Z,2.77
2023-01-11T01:18:31.174Z,2.74
2023-01-11T01:19:18.433Z,2.69
2023-01-11T01:20:06.294Z,2.66
2023-01-11T01:20:53.153Z,2.67
2023-01-11T01:21:40.146Z,2.63
2023-01-11T01:22:27.034Z,2.58
2023-01-11T01:23:13.917Z,2.55
2023-01-11T01:24:00.863Z,2.59
2023-01-11T01:24:47.819Z,2.56
2023-01-11T01:25:37.190Z,2.55
2023-01-11T01:26:24.158Z,2.52
2023-01-11T01:27:16.005Z,2.46
2023-01-11T01:28:02.878Z,2.47
2023-01-11T01:28:52.996Z,2.45
2023-01-11T01:29:39.867Z,2.41
2023-01-11T01:30:26.826Z,2.49
2023-01-11T01:31:14.326Z,2.54
2023-01-11T01:32:01.190Z,2.47
2023-01-11T01:32:48.056Z,2.52
2023-01-11T01:33:35.076Z,2.50
2023-01-11T01:34:21.953Z,2.45
2023-01-11T01:35:09.265Z,2.41
2023-01-11T01:35:56.191Z,2.44
2023-01-11T01:36:43.112Z,2.55
2023-01-11T01:37:29.938Z,2.51
2023-01-11T01:38:17.065Z,2.54
2023-01-11T01:39:05.339Z,2.49
2023-01-11T01:39:52.266Z,2.54
2023-01-11T01:40:47.165Z,2.63
2023-01-11T01:41:35.143Z,2.60
2023-01-11T01:42:24.238Z,2.59
2023-01-11T01:43:16.443Z,2.65
2023-01-11T01:44:25.050Z,2.69
2023-01-11T01:45:25.645Z,2.65
2023-01-11T01:46:12.559Z,2.60
2023-01-11T01:46:59.830Z,2.65
2023-01-11T01:47:53.324Z,2.58
2023-01-11T01:48:41.004Z,2.61
2023-01-11T01:49:27.885Z,2.59
2023-01-11T01:50:22.771Z,2.62
2023-01-11T01:51:11.254Z,2.57
2023-01-11T01:51:58.342Z,2.58
2023-01-11T01:52:47.853Z,2.56
2023-01-11T01:53:37.886Z,2.63
2023-01-11T01:54:30.520Z,2.72
2023-01-11T01:55:23.750Z,2.65
2023-01-11T01:56:13.852Z,2.54
2023-01-11T01:57:06.123Z,2.51
2023-01-11T01:57:54.015Z,2.56
2023-01-11T01:58:55.149Z,2.52
2023-01-11T01:59:42.183Z,2.49
2023-01-11T02:00:29.144Z,2.57
2023-01-11T02:01:35.589Z,2.52
2023-01-11T02:02:24.305Z,2.51
2023-01-11T02:03:17.005Z,2.49
2023-01-11T02:04:10.187Z,2.47
2023-01-11T02:04:57.862Z,2.52
2023-01-11T02:05:45.262Z,2.60
2023-01-11T02:06:32.241Z,2.57
2023-01-11T02:07:45.678Z,2.54
2023-01-11T02:08:38.351Z,2.51
2023-01-11T02:10:00.472Z,2.43
2023-01-11T02:10:47.524Z,2.44
2023-01-11T02:11:35.021Z,2.40
2023-01-11T02:12:21.969Z,2.47
2023-01-11T02:13:11.444Z,2.41
2023-01-11T02:14:07.294Z,2.38
2023-01-11T02:14:54.846Z,2.36
2023-01-11T02:15:41.897Z,2.36
2023-01-11T02:16:28.834Z,2.32
2023-01-11T02:17:15.794Z,2.28
2023-01-11T02:18:02.717Z,2.21
2023-01-11T02:18:49.754Z,2.18
2023-01-11T02:19:55.502Z,2.16
2023-01-11T02:21:00.506Z,2.14
2023-01-11T02:21:53.265Z,2.16
2023-01-11T02:22:49.197Z,2.14
2023-01-11T02:23:42.065Z,2.13
2023-01-11T02:25:05.869Z,2.20
2023-01-11T02:26:31.805Z,2.19
2023-01-11T02:27:43.287Z,2.32
2023-01-11T02:28:35.753Z,2.28
2023-01-11T02:30:00.496Z,2.22
2023-01-11T02:31:05.935Z,2.18
2023-01-11T02:32:17.292Z,2.21
2023-01-11T02:33:34.929Z,2.15
2023-01-11T02:34:47.935Z,2.23
2023-01-11T02:35:53.156Z,2.24
2023-01-11T02:37:04.655Z,2.20
2023-01-11T02:38:27.254Z,2.20
2023-01-11T02:39:16.526Z,2.24
2023-01-11T02:40:15.555Z,2.13
2023-01-11T02:41:48.973Z,2.16
2023-01-11T02:43:18.585Z,2.18
2023-01-11T02:44:31.656Z,2.15
2023-01-11T02:45:33.669Z,2.08
2023-01-11T02:46:23.363Z,2.03
2023-01-11T02:47:18.517Z,2.13
2023-01-11T02:48:20.383Z,2.12
2023-01-11T02:49:27.264Z,2.10
2023-01-11T02:50:19.632Z,2.06
2023-01-11T02:51:11.464Z,2.03
2023-01-11T02:52:20.894Z,1.95
2023-01-11T02:53:32.557Z,2.02
2023-01-11T02:54:19.983Z,1.95
2023-01-11T02:55:08.148Z,1.92
2023-01-11T02:55:58.994Z,1.93
2023-01-11T02:56:48.360Z,1.94
2023-01-11T02:57:38.254Z,1.94
2023-01-11T02:58:28.925Z,1.91
2023-01-11T02:59:19.871Z,1.90
2023-01-11T03:00:06.870Z,1.87
2023-01-11T03:00:55.900Z,1.81
2023-01-11T03:01:51.758Z,1.79
2023-01-11T03:02:39.511Z,1.77
2023-01-11T03:03:29.766Z,1.74
2023-01-11T03:04:28.699Z,1.75
2023-01-11T03:05:15.736Z,1.76
2023-01-11T03:06:11.553Z,1.76
2023-01-11T03:07:12.184Z,1.71
2023-01-11T03:08:21.482Z,1.68
2023-01-11T03:09:46.845Z,1.68
2023-01-11T03:11:06.955Z,1.65
2023-01-11T03:12:34.997Z,1.67
2023-01-11T03:13:46.204Z,1.73
2023-01-11T03:15:02.854Z,1.67
2023-01-11T03:16:00.446Z,1.59
2023-01-11T03:17:02.416Z,1.47
2023-01-11T03:18:23.476Z,1.44
2023-01-11T03:19:26.344Z,1.45
2023-01-11T03:20:22.216Z,1.52
2023-01-11T03:21:11.575Z,1.50
2023-01-11T03:22:12.018Z,1.50
2023-01-11T03:23:19.515Z,1.52
2023-01-11T03:24:52.965Z,1.52
2023-01-11T03:25:39.947Z,1.52
2023-01-11T03:26:39.194Z,1.49
2023-01-11T03:27:36.025Z,1.49
2023-01-11T03:28:48.810Z,1.53
2023-01-11T03:29:49.944Z,1.45
2023-01-11T03:31:07.009Z,1.43
2023-01-11T03:32:17.326Z,1.46
2023-01-11T03:33:17.303Z,1.44
2023-01-11T03:34:13.822Z,1.43
2023-01-11T03:35:09.955Z,1.45
2023-01-11T03:36:08.778Z,1.43
2023-01-11T03:37:07.683Z,1.37
2023-01-11T03:38:08.324Z,1.35
2023-01-11T03:39:06.953Z,1.42
2023-01-11T03:40:22.897Z,1.43
2023-01-11T03:41:13.889Z,1.40
2023-01-11T03:42:02.287Z,1.34
2023-01-11T03:43:11.281Z,1.36
2023-01-11T03:44:00.489Z,1.34
2023-01-11T03:44:52.175Z,1.33
2023-01-11T03:46:05.654Z,1.37
2023-01-11T03:46:56.500Z,1.33
2023-01-11T03:47:43.404Z,1.33
2023-01-11T03:48:46.686Z,1.34
2023-01-11T03:49:46.664Z,1.29
2023-01-11T03:50:34.168Z,1.30
2023-01-11T03:51:29.248Z,1.29
2023-01-11T03:52:18.644Z,1.25
2023-01-11T03:53:06.926Z,1.25
2023-01-11T03:53:55.638Z,1.26
2023-01-11T03:54:44.578Z,1.23
2023-01-11T03:55:35.294Z,1.21
2023-01-11T03:56:27.774Z,1.11
2023-01-11T03:57:23.511Z,1.07
2023-01-11T03:58:11.076Z,1.07
2023-01-11T03:58:57.958Z,1.02
2023-01-11T03:59:45.026Z,1.01
2023-01-11T04:00:32.626Z,0.98
2023-01-11T04:01:19.845Z,0.94
2023-01-11T04:02:21.834Z,0.85
2023-01-11T04:03:09.927Z,0.82
2023-01-11T04:03:56.908Z,0.76
2023-01-11T04:04:43.853Z,0.70
2023-01-11T04:05:30.815Z,0.74
2023-01-11T04:06:18.819Z,0.80
2023-01-11T04:07:05.792Z,0.77
2023-01-11T04:07:53.546Z,0.74
2023-01-11T04:08:40.406Z,0.75
2023-01-11T04:09:27.305Z,0.79
2023-01-11T04:10:14.322Z,0.82
2023-01-11T04:11:04.706Z,0.84
2023-01-11T04:11:51.687Z,0.76
2023-01-11T04:12:38.596Z,0.79
2023-01-11T04:13:25.578Z,0.69
2023-01-11T04:14:12.417Z,0.71
2023-01-11T04:14:59.303Z,0.74
2023-01-11T04:15:46.227Z,0.68
2023-01-11T04:16:33.160Z,0.73
2023-01-11T04:17:20.134Z,0.71
2023-01-11T04:18:07.027Z,0.78
2023-01-11T04:18:53.883Z,0.76
2023-01-11T04:19:40.724Z,0.73
2023-01-11T04:20:27.605Z,0.74
2023-01-11T04:21:14.474Z,0.68
2023-01-11T04:22:01.355Z,0.67
2023-01-11T04:22:48.184Z,0.68
2023-01-11T04:23:35.972Z,0.63
2023-01-11T04:24:23.249Z,0.64
2023-01-11T04:25:10.315Z,0.69
2023-01-11T04:25:57.165Z,0.68
2023-01-11T04:26:44.420Z,0.65
2023-01-11T04:27:31.303Z,0.64
2023-01-11T04:28:18.205Z,0.66
2023-01-11T04:29:05.297Z,0.71
2023-01-11T04:29:52.187Z,0.75
2023-01-11T04:30:39.165Z,0.73
2023-01-11T04:31:26.170Z,0.70
2023-01-11T04:32:13.121Z,0.69
2023-01-11T04:33:00.209Z,0.72
2023-01-11T04:33:47.119Z,0.67
2023-01-11T04:34:33.925Z,0.67
2023-01-11T04:35:20.875Z,0.72
2023-01-11T04:36:10.005Z,0.71
2023-01-11T04:36:56.938Z,0.71
2023-01-11T04:37:43.885Z,0.72
2023-01-11T04:38:30.733Z,0.77
2023-01-11T04:39:17.689Z,0.78
2023-01-11T04:40:04.971Z,0.76
2023-01-11T04:41:11.856Z,0.71
2023-01-11T04:42:17.285Z,0.68
2023-01-11T04:43:04.158Z,0.69
2023-01-11T04:43:53.790Z,0.70
2023-01-11T04:44:40.674Z,0.69
2023-01-11T04:45:27.726Z,0.69
2023-01-11T04:46:14.677Z,0.71
2023-01-11T04:47:01.507Z,0.71
2023-01-11T04:47:54.659Z,0.68
2023-01-11T04:48:41.578Z,0.68
2023-01-11T04:49:28.425Z,0.65
2023-01-11T04:50:15.371Z,0.61
2023-01-11T04:51:02.205Z,0.58
2023-01-11T04:51:49.048Z,0.57
2023-01-11T04:52:35.836Z,0.57
2023-01-11T04:53:22.673Z,0.57
2023-01-11T04:54:09.595Z,0.55
2023-01-11T04:54:56.494Z,0.57
2023-01-11T04:55:43.746Z,0.62
2023-01-11T04:56:30.564Z,0.58
2023-01-11T04:57:17.841Z,0.58
2023-01-11T04:58:04.658Z,0.63
2023-01-11T04:58:51.500Z,0.60
2023-01-11T04:59:38.285Z,0.61
2023-01-11T05:00:25.250Z,0.61
2023-01-11T05:01:15.126Z,0.62
2023-01-11T05:02:02.202Z,0.65
2023-01-11T05:02:49.026Z,0.67
2023-01-11T05:03:35.887Z,0.73
2023-01-11T05:04:22.932Z,0.69
2023-01-11T05:05:10.735Z,0.69
2023-01-11T05:05:58.889Z,0.68
2023-01-11T05:06:46.285Z,0.66
2023-01-11T05:07:33.446Z,0.65
2023-01-11T05:08:20.327Z,0.61
2023-01-11T05:09:09.793Z,0.60
2023-01-11T05:09:56.679Z,0.61
2023-01-11T05:10:43.577Z,0.62
2023-01-11T05:11:30.526Z,0.63
2023-01-11T05:12:17.465Z,0.61
2023-01-11T05:13:04.378Z,0.52
2023-01-11T05:13:51.515Z,0.50
2023-01-11T05:14:38.452Z,0.44
2023-01-11T05:15:25.346Z,0.50
2023-01-11T05:16:12.258Z,0.52
2023-01-11T05:16:59.297Z,0.43
2023-01-11T05:17:46.232Z,0.38
2023-01-11T05:18:33.182Z,0.30
2023-01-11T05:19:21.604Z,0.30
2023-01-11T05:20:09.323Z,0.31
2023-01-11T05:20:56.202Z,0.23
2023-01-11T05:21:43.151Z,0.22
2023-01-11T05:22:30.027Z,0.20
2023-01-11T05:23:16.986Z,0.22
2023-01-11T05:24:05.773Z,0.07
2023-01-11T05:24:52.684Z,-0.01
2023-01-11T05:25:39.646Z,0.05
2023-01-11T05:26:29.353Z,-0.05
2023-01-11T05:27:16.284Z,-0.01
2023-01-11T05:28:03.165Z,-0.18
2023-01-11T05:28:50.905Z,-0.10
2023-01-11T05:29:37.775Z,-0.07
2023-01-11T05:30:24.654Z,-0.24
2023-01-11T05:31:11.524Z,-0.32
2023-01-11T05:31:58.527Z,-0.40
2023-01-11T05:32:45.575Z,-0.55
2023-01-11T05:33:32.703Z,-0.54
2023-01-11T05:34:19.689Z,-0.50
2023-01-11T05:35:10.269Z,-0.62
2023-01-11T05:35:58.107Z,-0.58
2023-01-11T05:36:45.305Z,-0.53
2023-01-11T05:37:32.182Z,-0.55
2023-01-11T05:38:19.076Z,-0.52
2023-01-11T05:39:06.431Z,-0.63
2023-01-11T05:39:53.394Z,-0.54
2023-01-11T05:40:40.293Z,-0.58
2023-01-11T05:41:27.983Z,-0.65
2023-01-11T05:42:15.012Z,-0.68
2023-01-11T05:43:01.909Z,-0.62
2023-01-11T05:44:08.495Z,-0.63
2023-01-11T05:45:14.203Z,-0.66
2023-01-11T05:46:01.559Z,-0.77
2023-01-11T05:46:48.663Z,-0.75
2023-01-11T05:47:35.560Z,-0.96
2023-01-11T05:48:22.470Z,-1.10
2023-01-11T05:49:10.824Z,-0.99
2023-01-11T05:49:57.716Z,-0.93
2023-01-11T05:50:44.827Z,-0.97
2023-01-11T05:51:32.875Z,-1.00
2023-01-11T05:52:19.790Z,-1.02
2023-01-11T05:53:07.344Z,-0.99
2023-01-11T05:53:54.266Z,-0.94
2023-01-11T05:54:41.143Z,-0.92
2023-01-11T05:55:28.101Z,-0.98
2023-01-11T05:56:15.022Z,-1.03
2023-01-11T05:57:01.945Z,-1.01
2023-01-11T05:57:48.837Z,-1.03
2023-01-11T05:58:35.748Z,-1.11
2023-01-11T05:59:22.723Z,-1.13
2023-01-11T06:00:10.404Z,-1.29
2023-01-11T06:00:57.364Z,-1.50
2023-01-11T06:01:44.292Z,-1.65
2023-01-11T06:02:31.231Z,-1.56
2023-01-11T06:03:18.546Z,-1.58
2023-01-11T06:04:05.916Z,-1.47
2023-01-11T06:04:54.411Z,-1.30
2023-01-11T06:05:42.402Z,-1.20
2023-01-11T06:06:29.363Z,-1.20
2023-01-11T06:07:16.375Z,-1.29
2023-01-11T06:08:03.245Z,-1.24
2023-01-11T06:08:50.416Z,-1.33
2023-01-11T06:09:37.382Z,-1.38
2023-01-11T06:10:24.299Z,-1.34
2023-01-11T06:11:11.269Z,-1.40
2023-01-11T06:11:58.195Z,-1.47
2023-01-11T06:12:45.103Z,-1.38
2023-01-11T06:13:34.025Z,-1.38
2023-01-11T06:14:20.908Z,-1.41
2023-01-11T06:15:08.439Z,-1.42
2023-01-11T06:16:05.376Z,-1.34
2023-01-11T06:16:52.416Z,-1.34
2023-01-11T06:17:39.536Z,-1.35
2023-01-11T06:18:27.308Z,-1.65
2023-01-11T06:19:14.323Z,-1.62
2023-01-11T06:20:01.233Z,-1.64
2023-01-11T06:20:52.048Z,-1.62
2023-01-11T06:21:39.036Z,-1.67
2023-01-11T06:22:25.955Z,-1.60
2023-01-11T06:23:12.882Z,-1.63
2023-01-11T06:24:00.082Z,-1.58
2023-01-11T06:24:47.033Z,-1.55
2023-01-11T06:25:37.806Z,-1.67
2023-01-11T06:26:24.732Z,-1.81
2023-01-11T06:27:11.663Z,-1.82
2023-01-11T06:27:59.825Z,-1.79
2023-01-11T06:28:47.233Z,-1.79
2023-01-11T06:29:34.114Z,-1.80
2023-01-11T06:30:21.144Z,-1.78
2023-01-11T06:31:08.662Z,-1.74
2023-01-11T06:31:55.654Z,-1.67
2023-01-11T06:32:42.496Z,-1.65
2023-01-11T06:33:30.336Z,-1.65
2023-01-11T06:34:17.224Z,-1.68
2023-01-11T06:35:04.304Z,-1.73
2023-01-11T06:35:51.394Z,-1.65
2023-01-11T06:36:39.209Z,-1.71
2023-01-11T06:37:26.113Z,-1.65
2023-01-11T06:38:14.806Z,-1.61
2023-01-11T06:39:01.677Z,-1.61
2023-01-11T06:39:48.635Z,-1.66
2023-01-11T06:40:36.184Z,-1.81
2023-01-11T06:41:23.103Z,-1.88
2023-01-11T06:42:09.993Z,-1.98
2023-01-11T06:42:56.954Z,-1.91
2023-01-11T06:43:43.883Z,-1.88
2023-01-11T06:44:30.809Z,-1.95
2023-01-11T06:45:17.762Z,-2.01
2023-01-11T06:46:05.164Z,-1.94
2023-01-11T06:46:52.128Z,-1.96
2023-01-11T06:47:39.066Z,-1.92
2023-01-11T06:48:26.650Z,-1.88
2023-01-11T06:49:13.552Z,-2.03
2023-01-11T06:50:00.442Z,-2.09
2023-01-11T06:50:55.469Z,-2.03
2023-01-11T06:51:42.373Z,-1.84
2023-01-11T06:52:29.268Z,-1.73
2023-01-11T06:53:16.385Z,-1.75
2023-01-11T06:54:03.275Z,-1.82
2023-01-11T06:54:50.145Z,-1.88
2023-01-11T06:55:37.012Z,-1.90
2023-01-11T06:56:24.005Z,-1.71
2023-01-11T06:57:11.454Z,-1.61
2023-01-11T06:57:58.610Z,-1.66
2023-01-11T06:58:47.132Z,-1.94
2023-01-11T06:59:34.785Z,-1.73
2023-01-11T07:00:22.460Z,-1.69
2023-01-11T07:01:09.499Z,-1.65
2023-01-11T07:01:56.654Z,-1.52
2023-01-11T07:02:44.092Z,-1.57
2023-01-11T07:03:31.014Z,-1.59
2023-01-11T07:04:19.978Z,-1.49
2023-01-11T07:05:07.148Z,-1.33
2023-01-11T07:05:56.947Z,-1.25
2023-01-11T07:06:43.985Z,-1.20
2023-01-11T07:07:30.877Z,-1.27
2023-01-11T07:08:17.822Z,-1.23
2023-01-11T07:09:04.775Z,-1.40
2023-01-11T07:09:53.498Z,-1.37
2023-01-11T07:10:40.432Z,-1.41
2023-01-11T07:11:27.335Z,-1.18
2023-01-11T07:12:14.226Z,-1.13
2023-01-11T07:13:01.156Z,-1.19
2023-01-11T07:13:48.126Z,-1.12
2023-01-11T07:14:35.131Z,-1.09
2023-01-11T07:15:22.207Z,-1.06
2023-01-11T07:16:09.111Z,-1.05
2023-01-11T07:16:56.033Z,-0.97
2023-01-11T07:17:42.939Z,-0.89
2023-01-11T07:18:31.951Z,-0.94
2023-01-11T07:19:18.876Z,-0.96
2023-01-11T07:20:06.852Z,-0.94
2023-01-11T07:20:53.784Z,-0.85
2023-01-11T07:21:40.620Z,-0.98
2023-01-11T07:22:27.995Z,-1.07
2023-01-11T07:23:15.012Z,-1.08
2023-01-11T07:24:02.708Z,-1.23
2023-01-11T07:24:50.544Z,-1.18
2023-01-11T07:25:37.843Z,-1.25
2023-01-11T07:26:26.724Z,-1.19
2023-01-11T07:27:13.701Z,-1.06
2023-01-11T07:28:02.524Z,-1.15
2023-01-11T07:28:49.473Z,-1.19
2023-01-11T07:29:36.426Z,-1.24
2023-01-11T07:30:24.391Z,-1.27
2023-01-11T07:31:11.327Z,-1.00
2023-01-11T07:31:58.317Z,-0.99
2023-01-11T07:32:45.230Z,-1.05
2023-01-11T07:33:32.083Z,-1.11
2023-01-11T07:34:19.116Z,-1.11
2023-01-11T07:35:06.526Z,-1.14
2023-01-11T07:35:54.157Z,-1.18
2023-01-11T07:36:41.079Z,-1.13
2023-01-11T07:37:29.562Z,-1.11
2023-01-11T07:38:16.627Z,-1.04
2023-01-11T07:39:03.531Z,-0.98
2023-01-11T07:39:50.495Z,-0.96
2023-01-11T07:40:37.847Z,-0.91
2023-01-11T07:41:43.707Z,-0.84
2023-01-11T07:42:49.323Z,-0.87
2023-01-11T07:43:36.238Z,-0.83
2023-01-11T07:44:23.103Z,-0.73
2023-01-11T07:45:10.572Z,-0.72
2023-01-11T07:45:57.882Z,-0.66
2023-01-11T07:46:44.909Z,-0.58
2023-01-11T07:47:31.836Z,-0.48
2023-01-11T07:48:21.589Z,-0.42
2023-01-11T07:49:08.602Z,-0.39
2023-01-11T07:49:55.553Z,-0.37
2023-01-11T07:50:45.044Z,-0.31
2023-01-11T07:51:32.277Z,-0.24
2023-01-11T07:52:19.454Z,-0.16
2023-01-11T07:53:07.857Z,-0.11
2023-01-11T07:53:54.813Z,-0.06
2023-01-11T07:54:41.695Z,0.01
2023-01-11T07:55:28.593Z,0.04
2023-01-11T07:56:15.522Z,0.08
2023-01-11T07:57:02.408Z,0.16
2023-01-11T07:57:49.354Z,0.21
2023-01-11T07:58:36.254Z,0.19
2023-01-11T07:59:23.334Z,0.26
2023-01-11T08:00:11.252Z,0.24
2023-01-11T08:01:00.296Z,0.28
2023-01-11T08:01:49.243Z,0.34
2023-01-11T08:02:36.288Z,0.36
2023-01-11T08:03:23.423Z,0.39
2023-01-11T08:04:12.862Z,0.44
2023-01-11T08:05:00.757Z,0.46
2023-01-11T08:05:52.790Z,0.43
2023-01-11T08:06:39.963Z,0.51
2023-01-11T08:07:26.899Z,0.54
2023-01-11T08:08:13.853Z,0.55
2023-01-11T08:09:00.773Z,0.60
2023-01-11T08:09:47.734Z,0.63
2023-01-11T08:10:34.940Z,0.69
2023-01-11T08:11:54.268Z,0.72
2023-01-11T08:13:07.060Z,0.75
2023-01-11T08:14:12.670Z,0.86
2023-01-11T08:14:59.629Z,0.92
2023-01-11T08:15:46.593Z,0.99
2023-01-11T08:16:33.572Z,0.99
2023-01-11T08:17:20.474Z,0.98
2023-01-11T08:18:07.995Z,1.02
2023-01-11T08:18:54.874Z,1.08
2023-01-11T08:19:42.593Z,1.13
2023-01-11T08:20:29.551Z,1.09
2023-01-11T08:21:17.588Z,1.10
2023-01-11T08:22:04.879Z,1.16
2023-01-11T08:22:51.832Z,1.20
2023-01-11T08:23:38.785Z,1.29
2023-01-11T08:24:26.274Z,1.33
2023-01-11T08:25:13.432Z,1.38
2023-01-11T08:26:00.324Z,1.43
2023-01-11T08:26:47.283Z,1.42
2023-01-11T08:27:34.379Z,1.38
2023-01-11T08:28:21.287Z,1.37
2023-01-11T08:29:08.384Z,1.37
2023-01-11T08:29:55.264Z,1.46
2023-01-11T08:30:42.207Z,1.51
2023-01-11T08:31:29.262Z,1.55
2023-01-11T08:32:16.177Z,1.38
2023-01-11T08:33:04.210Z,1.42
2023-01-11T08:33:51.116Z,1.45
2023-01-11T08:34:38.059Z,1.51
2023-01-11T08:35:26.094Z,1.59
2023-01-11T08:36:13.383Z,1.65
2023-01-11T08:37:02.326Z,1.71
2023-01-11T08:37:49.285Z,1.69
2023-01-11T08:38:36.357Z,1.66
2023-01-11T08:39:24.569Z,1.71
2023-01-11T08:40:12.297Z,1.76
2023-01-11T08:40:59.223Z,1.84
2023-01-11T08:41:46.105Z,1.88
2023-01-11T08:42:35.306Z,1.96
2023-01-11T08:43:22.257Z,1.96
2023-01-11T08:44:10.015Z,1.94
2023-01-11T08:44:57.516Z,1.96
2023-01-11T08:45:44.443Z,1.99
2023-01-11T08:46:34.313Z,2.04
2023-01-11T08:47:21.604Z,2.04
2023-01-11T08:48:08.507Z,2.01
2023-01-11T08:48:55.483Z,2.06
2023-01-11T08:49:43.261Z,2.09
2023-01-11T08:50:30.224Z,2.13
2023-01-11T08:51:18.463Z,2.11
2023-01-11T08:52:05.371Z,2.17
2023-01-11T08:52:52.263Z,2.21
2023-01-11T08:53:39.225Z,2.23
2023-01-11T08:54:26.202Z,2.16
2023-01-11T08:55:13.151Z,2.24
2023-01-11T08:56:00.110Z,2.32
2023-01-11T08:56:47.113Z,2.35
2023-01-11T08:57:34.587Z,2.33
2023-01-11T08:58:21.669Z,2.37
2023-01-11T08:59:10.263Z,2.42
2023-01-11T08:59:57.132Z,2.53
2023-01-11T09:00:44.235Z,2.69
2023-01-11T09:01:31.280Z,2.73
2023-01-11T09:02:18.272Z,2.82
2023-01-11T09:03:05.261Z,2.93
2023-01-11T09:03:52.200Z,3.00
2023-01-11T09:04:39.129Z,3.11
2023-01-11T09:05:26.122Z,3.15
2023-01-11T09:06:13.154Z,3.19
2023-01-11T09:07:01.053Z,3.23
2023-01-11T09:07:48.189Z,3.22
2023-01-11T09:08:35.119Z,3.21
2023-01-11T09:09:22.671Z,3.21
2023-01-11T09:10:10.161Z,3.25
2023-01-11T09:10:59.997Z,3.33
2023-01-11T09:11:57.437Z,3.39
2023-01-11T09:12:44.401Z,3.47
2023-01-11T09:13:31.858Z,3.53
2023-01-11T09:14:18.811Z,3.57
2023-01-11T09:15:06.319Z,3.65
2023-01-11T09:15:57.578Z,3.68
2023-01-11T09:16:44.589Z,3.70
2023-01-11T09:17:31.842Z,3.75
2023-01-11T09:18:18.776Z,3.76
2023-01-11T09:19:05.733Z,3.75
2023-01-11T09:19:52.643Z,3.73
2023-01-11T09:20:39.624Z,3.72
2023-01-11T09:21:26.692Z,3.71
2023-01-11T09:22:13.717Z,3.67
2023-01-11T09:23:00.587Z,3.71
2023-01-11T09:23:47.607Z,3.77
2023-01-11T09:24:34.575Z,3.76
2023-01-11T09:25:21.771Z,3.72
2023-01-11T09:26:08.682Z,3.77
2023-01-11T09:26:58.470Z,3.83
2023-01-11T09:27:49.429Z,3.95
2023-01-11T09:28:36.328Z,4.01
2023-01-11T09:29:23.283Z,4.05
2023-01-11T09:30:11.243Z,4.06
2023-01-11T09:30:58.147Z,4.04
2023-01-11T09:31:45.105Z,4.08
2023-01-11T09:32:31.986Z,4.08
2023-01-11T09:33:18.873Z,4.14
2023-01-11T09:34:07.252Z,4.23
2023-01-11T09:34:57.554Z,4.30
2023-01-11T09:35:46.459Z,4.32
2023-01-11T09:36:36.184Z,4.35
2023-01-11T09:37:23.783Z,4.36
2023-01-11T09:38:10.772Z,4.34
2023-01-11T09:39:00.585Z,4.30
2023-01-11T09:39:47.980Z,4.38
2023-01-11T09:41:13.271Z,4.43
2023-01-11T09:42:20.936Z,4.46
2023-01-11T09:43:11.647Z,4.42
2023-01-11T09:44:06.551Z,4.39
2023-01-11T09:45:18.857Z,4.45
2023-01-11T09:46:08.855Z,4.48
2023-01-11T09:47:08.953Z,4.50
2023-01-11T09:48:04.973Z,4.52
2023-01-11T09:48:55.432Z,4.49
2023-01-11T09:49:46.056Z,4.35
2023-01-11T09:50:33.824Z,4.36
2023-01-11T09:51:23.149Z,4.43
2023-01-11T09:52:25.009Z,4.55
2023-01-11T09:53:38.550Z,4.61
2023-01-11T09:54:27.498Z,4.59
2023-01-11T09:55:25.328Z,4.70
2023-01-11T09:56:14.183Z,4.69
2023-01-11T09:57:24.529Z,4.79
2023-01-11T09:58:36.869Z,4.74
2023-01-11T09:59:48.904Z,4.63
2023-01-11T10:01:01.114Z,4.72
2023-01-11T10:02:12.240Z,4.67
2023-01-11T10:03:21.115Z,4.68
2023-01-11T10:04:33.580Z,4.67
2023-01-11T10:05:40.705Z,4.46
2023-01-11T10:06:38.045Z,4.48
2023-01-11T10:07:49.974Z,4.56
2023-01-11T10:18:27.203Z,4.70
2023-01-11T10:18:28.620Z,4.74
2023-01-11T10:18:42.747Z,4.74
2023-01-11T10:19:18.474Z,4.79
2023-01-11T10:20:04.171Z,4.85
2023-01-11T10:20:54.386Z,4.97
2023-01-11T10:21:47.917Z,5.02
2023-01-11T10:22:41.690Z,5.12
2023-01-11T10:23:49.770Z,5.19
2023-01-11T10:24:42.396Z,5.22
2023-01-11T10:25:38.416Z,5.27
2023-01-11T10:26:28.957Z,5.33
2023-01-11T10:27:32.899Z,5.32
2023-01-11T10:28:31.491Z,5.39
2023-01-11T10:29:53.781Z,5.47
2023-01-11T10:30:59.515Z,5.51
2023-01-11T10:32:26.038Z,5.60
2023-01-11T10:33:36.680Z,5.69
2023-01-11T10:34:46.873Z,5.72
2023-01-11T10:36:06.132Z,5.76
2023-01-11T10:37:21.266Z,5.72
2023-01-11T10:38:29.005Z,5.67
2023-01-11T10:39:55.979Z,5.64
2023-01-11T10:41:04.533Z,5.66
2023-01-11T10:42:00.932Z,5.68
2023-01-11T10:42:52.872Z,5.69
2023-01-11T10:43:43.503Z,5.74
2023-01-11T10:44:36.019Z,5.67
2023-01-11T10:45:26.304Z,5.60
2023-01-11T10:46:18.494Z,5.71
2023-01-11T10:47:12.846Z,5.77
2023-01-11T10:48:04.538Z,5.82
2023-01-11T10:49:01.503Z,5.87
2023-01-11T10:49:56.269Z,5.88
2023-01-11T10:51:13.735Z,5.96
2023-01-11T10:52:12.678Z,5.94
2023-01-11T10:53:19.169Z,5.96
2023-01-11T10:54:18.204Z,6.01
2023-01-11T10:55:13.374Z,6.01
2023-01-11T10:56:08.416Z,6.06
2023-01-11T10:57:11.584Z,6.04
2023-01-11T10:58:21.657Z,6.08
2023-01-11T10:59:23.982Z,6.06
2023-01-11T11:00:42.066Z,6.12
2023-01-11T11:01:45.447Z,6.16
2023-01-11T11:02:47.200Z,6.16
2023-01-11T11:03:52.033Z,6.21
2023-01-11T11:04:53.937Z,6.25
2023-01-11T11:05:52.840Z,6.30
2023-01-11T11:06:47.006Z,6.32
2023-01-11T11:07:45.312Z,6.32
2023-01-11T11:08:44.789Z,6.33
2023-01-11T11:09:40.635Z,6.31
2023-01-11T11:10:33.636Z,6.33
2023-01-11T11:11:25.277Z,6.34
2023-01-11T11:12:39.697Z,6.37
2023-01-11T11:13:39.293Z,6.46
2023-01-11T11:14:42.441Z,6.43
2023-01-11T11:15:35.876Z,6.48
2023-01-11T11:16:22.817Z,6.41
2023-01-11T11:17:14.145Z,6.42
2023-01-11T11:18:01.111Z,6.43
2023-01-11T11:18:52.549Z,6.49
2023-01-11T11:19:41.190Z,6.50
2023-01-11T11:20:33.627Z,6.53
2023-01-11T11:21:28.455Z,6.57
2023-01-11T11:22:15.362Z,6.61
2023-01-11T11:23:02.502Z,6.59
2023-01-11T11:23:56.125Z,6.61
2023-01-11T11:25:18.314Z,6.61
2023-01-11T11:26:07.200Z,6.60
2023-01-11T11:26:59.672Z,6.59
2023-01-11T11:27:51.960Z,6.60